createdAt,value
2023-12-24T00:02:14.402Z,3.77
2023-12-24T00:04:43.289Z,3.81
2023-12-24T00:07:10.970Z,3.73
2023-12-24T00:09:38.607Z,3.64
2023-12-24T00:12:07.420Z,3.59
2023-12-24T00:14:35.415Z,3.72
2023-12-24T00:17:04.837Z,3.81
2023-12-24T00:19:32.467Z,3.90
2023-12-24T00:22:00.220Z,3.84
2023-12-24T00:24:27.878Z,3.85
2023-12-24T00:26:55.533Z,3.90
2023-12-24T00:29:23.154Z,3.97
2023-12-24T00:31:50.746Z,3.98
2023-12-24T00:34:19.769Z,4.01
2023-12-24T00:36:47.734Z,4.04
2023-12-24T00:39:15.293Z,4.09
2023-12-24T00:41:42.928Z,3.93
2023-12-24T00:44:10.585Z,4.03
2023-12-24T00:46:37.233Z,3.97
2023-12-24T00:49:06.194Z,3.94
2023-12-24T00:51:35.300Z,3.91
2023-12-24T00:54:02.891Z,3.96
2023-12-24T00:56:30.535Z,3.94
2023-12-24T00:58:58.245Z,4.01
2023-12-24T01:01:25.961Z,3.97
2023-12-24T01:03:53.985Z,3.97
2023-12-24T01:06:21.735Z,4.04
2023-12-24T01:08:50.707Z,4.06
2023-12-24T01:11:18.428Z,4.06
2023-12-24T01:13:46.073Z,4.04
2023-12-24T01:16:13.627Z,4.06
2023-12-24T01:18:41.624Z,4.04
2023-12-24T01:21:09.342Z,4.05
2023-12-24T01:23:37.260Z,4.13
2023-12-24T01:26:06.885Z,4.09
2023-12-24T01:28:34.568Z,4.25
2023-12-24T01:31:02.420Z,4.22
2023-12-24T01:33:30.136Z,4.18
2023-12-24T01:35:57.758Z,4.17
2023-12-24T01:38:25.494Z,4.19
2023-12-24T01:40:53.146Z,4.21
2023-12-24T01:43:22.101Z,4.30
2023-12-24T01:45:50.064Z,4.34
2023-12-24T01:48:18.535Z,4.41
2023-12-24T01:50:48.010Z,4.48
2023-12-24T01:53:18.495Z,4.56
2023-12-24T01:55:49.836Z,4.61
2023-12-24T01:58:17.600Z,4.72
2023-12-24T02:00:48.162Z,4.79
2023-12-24T02:03:17.130Z,4.85
2023-12-24T02:05:47.303Z,4.94
2023-12-24T02:08:15.996Z,5.01
2023-12-24T02:10:44.452Z,5.04
2023-12-24T02:13:13.115Z,5.06
2023-12-24T02:15:40.777Z,5.16
2023-12-24T02:18:10.244Z,5.22
2023-12-24T02:20:37.940Z,5.33
2023-12-24T02:23:07.096Z,5.34
2023-12-24T02:25:34.765Z,5.43
2023-12-24T02:28:08.330Z,5.51
2023-12-24T02:30:40.327Z,5.74
2023-12-24T02:33:10.315Z,6.06
2023-12-24T02:35:39.875Z,6.48
2023-12-24T02:38:09.072Z,6.69
2023-12-24T02:40:36.646Z,6.99
2023-12-24T02:43:04.563Z,7.32
2023-12-24T02:45:32.140Z,7.56
2023-12-24T02:47:59.919Z,7.69
2023-12-24T02:50:27.637Z,7.77
2023-12-24T02:52:55.415Z,7.82
2023-12-24T02:55:26.184Z,7.86
2023-12-24T02:57:53.832Z,7.87
2023-12-24T03:00:21.606Z,7.91
2023-12-24T03:02:49.406Z,7.93
2023-12-24T03:05:17.335Z,7.99
2023-12-24T03:07:45.073Z,7.95
2023-12-24T03:10:12.698Z,7.97
2023-12-24T03:12:41.622Z,8.01
2023-12-24T03:15:12.145Z,8.03
2023-12-24T03:17:40.072Z,8.02
2023-12-24T03:20:09.975Z,8.07
2023-12-24T03:22:37.579Z,8.04
2023-12-24T03:25:05.944Z,8.11
2023-12-24T03:27:33.509Z,8.11
2023-12-24T03:30:03.971Z,8.14
2023-12-24T03:32:31.855Z,8.17
2023-12-24T03:35:00.977Z,8.11
2023-12-24T03:37:28.670Z,8.12
2023-12-24T03:39:56.311Z,8.11
2023-12-24T03:42:23.882Z,8.12
2023-12-24T03:44:51.567Z,8.12
2023-12-24T03:47:20.580Z,8.15
2023-12-24T03:49:48.228Z,8.16
2023-12-24T03:52:15.895Z,8.20
2023-12-24T03:54:43.786Z,8.23
2023-12-24T03:57:11.402Z,8.22
2023-12-24T03:59:40.236Z,8.16
2023-12-24T04:02:07.915Z,8.18
2023-12-24T04:04:35.883Z,8.22
2023-12-24T04:07:04.288Z,8.18
2023-12-24T04:09:32.862Z,8.24
2023-12-24T04:12:00.728Z,8.20
2023-12-24T04:14:28.321Z,8.24
2023-12-24T04:16:55.946Z,8.25
2023-12-24T04:19:23.657Z,8.26
2023-12-24T04:21:52.653Z,8.27
2023-12-24T04:24:20.278Z,8.24
2023-12-24T04:26:47.879Z,8.27
2023-12-24T04:29:16.081Z,8.27
2023-12-24T04:31:44.135Z,8.28
2023-12-24T04:34:12.454Z,8.27
2023-12-24T04:36:40.110Z,8.29
2023-12-24T04:39:09.146Z,8.30
2023-12-24T04:41:37.861Z,8.31
2023-12-24T04:44:06.337Z,8.29
2023-12-24T04:46:34.025Z,8.26
2023-12-24T04:49:01.638Z,8.27
2023-12-24T04:51:29.295Z,8.30
2023-12-24T04:53:56.901Z,8.30
2023-12-24T04:56:25.962Z,8.30
2023-12-24T04:58:54.579Z,8.30
2023-12-24T05:01:25.478Z,8.29
2023-12-24T05:03:53.588Z,8.32
2023-12-24T05:06:22.288Z,8.29
2023-12-24T05:08:50.006Z,8.33
2023-12-24T05:11:17.650Z,8.34
2023-12-24T05:13:46.611Z,8.35
2023-12-24T05:16:14.644Z,8.35
2023-12-24T05:18:42.372Z,8.32
2023-12-24T05:21:10.097Z,8.34
2023-12-24T05:23:37.789Z,8.35
2023-12-24T05:26:05.578Z,8.30
2023-12-24T05:28:33.195Z,8.38
2023-12-24T05:31:02.348Z,8.37
2023-12-24T05:33:30.384Z,8.40
2023-12-24T05:35:58.124Z,8.43
2023-12-24T05:38:25.945Z,8.43
2023-12-24T05:40:53.733Z,8.39
2023-12-24T05:43:21.348Z,8.37
2023-12-24T05:45:49.220Z,8.37
2023-12-24T05:48:18.371Z,8.44
2023-12-24T05:50:46.127Z,8.45
2023-12-24T05:53:13.875Z,8.48
2023-12-24T05:55:42.045Z,8.51
2023-12-24T05:58:09.673Z,8.46
2023-12-24T06:00:37.547Z,8.42
2023-12-24T06:03:05.644Z,8.40
2023-12-24T06:05:34.690Z,8.44
2023-12-24T06:08:02.432Z,8.43
2023-12-24T06:10:30.048Z,8.41
2023-12-24T06:12:57.665Z,8.47
2023-12-24T06:15:25.213Z,8.40
2023-12-24T06:17:52.960Z,8.49
2023-12-24T06:20:20.951Z,8.47
2023-12-24T06:22:50.296Z,8.44
2023-12-24T06:25:19.208Z,8.46
2023-12-24T06:27:46.905Z,8.51
2023-12-24T06:30:15.305Z,8.52
2023-12-24T06:32:45.130Z,8.53
2023-12-24T06:35:12.930Z,8.52
2023-12-24T06:37:40.631Z,8.55
2023-12-24T06:40:11.274Z,8.54
2023-12-24T06:42:38.948Z,8.56
2023-12-24T06:45:07.686Z,8.56
2023-12-24T06:47:35.439Z,8.52
2023-12-24T06:50:03.780Z,8.57
2023-12-24T06:52:31.391Z,8.54
2023-12-24T06:54:59.048Z,8.60
2023-12-24T06:57:27.937Z,8.63
2023-12-24T06:59:56.092Z,8.62
2023-12-24T07:02:23.757Z,8.56
2023-12-24T07:04:51.424Z,8.58
2023-12-24T07:07:19.030Z,8.61
2023-12-24T07:09:47.587Z,8.61
2023-12-24T07:12:15.141Z,8.63
2023-12-24T07:14:44.142Z,8.66
2023-12-24T07:17:11.807Z,8.63
2023-12-24T07:19:39.425Z,8.62
2023-12-24T07:22:07.005Z,8.64
2023-12-24T07:24:34.636Z,8.65
2023-12-24T07:27:02.239Z,8.67
2023-12-24T07:29:29.844Z,8.64
2023-12-24T07:31:58.797Z,8.76
2023-12-24T07:34:26.505Z,8.71
2023-12-24T07:36:54.202Z,8.69
2023-12-24T07:39:21.834Z,8.70
2023-12-24T07:41:49.488Z,8.71
2023-12-24T07:44:17.794Z,8.72
2023-12-24T07:46:46.245Z,8.80
2023-12-24T07:49:15.288Z,8.78
2023-12-24T07:51:43.182Z,8.73
2023-12-24T07:54:10.806Z,8.73
2023-12-24T07:56:38.477Z,8.82
2023-12-24T07:59:06.168Z,8.81
2023-12-24T08:01:33.808Z,8.81
2023-12-24T08:04:01.434Z,8.83
2023-12-24T08:06:30.489Z,8.87
2023-12-24T08:08:58.336Z,8.87
2023-12-24T08:11:26.095Z,8.90
2023-12-24T08:13:55.195Z,8.89
2023-12-24T08:16:22.864Z,8.91
2023-12-24T08:18:50.611Z,8.89
2023-12-24T08:21:18.349Z,8.87
2023-12-24T08:23:47.376Z,8.88
2023-12-24T08:26:15.320Z,8.93
2023-12-24T08:28:43.109Z,8.96
2023-12-24T08:31:11.602Z,8.96
2023-12-24T08:33:39.579Z,9.00
2023-12-24T08:36:09.118Z,9.04
2023-12-24T08:38:36.921Z,9.05
2023-12-24T08:41:06.038Z,9.08
2023-12-24T08:43:34.126Z,9.03
2023-12-24T08:46:04.401Z,9.09
2023-12-24T08:48:32.252Z,9.05
2023-12-24T08:51:02.016Z,9.08
2023-12-24T08:53:29.750Z,9.09
2023-12-24T08:55:57.417Z,9.10
2023-12-24T08:58:26.370Z,9.09
2023-12-24T09:00:54.804Z,9.09
2023-12-24T09:03:22.453Z,9.15
2023-12-24T09:05:50.191Z,9.15
2023-12-24T09:08:16.940Z,9.19
2023-12-24T09:10:44.597Z,9.23
2023-12-24T09:13:12.167Z,9.26
2023-12-24T09:15:41.129Z,9.24
2023-12-24T09:18:08.894Z,9.23
2023-12-24T09:20:36.659Z,9.27
2023-12-24T09:23:03.734Z,9.26
2023-12-24T09:25:31.357Z,9.27
2023-12-24T09:27:59.015Z,9.26
2023-12-24T09:30:26.679Z,9.30
2023-12-24T09:32:56.037Z,9.32
2023-12-24T09:35:23.870Z,9.36
2023-12-24T09:37:51.524Z,9.27
2023-12-24T09:40:19.145Z,9.29
2023-12-24T09:42:46.769Z,9.34
2023-12-24T09:45:14.908Z,9.33
2023-12-24T09:47:42.563Z,9.38
2023-12-24T09:50:11.884Z,9.42
2023-12-24T09:52:39.586Z,9.44
2023-12-24T09:55:08.111Z,9.48
2023-12-24T09:57:35.768Z,9.47
2023-12-24T10:00:05.366Z,9.51
2023-12-24T10:02:34.810Z,9.57
2023-12-24T10:05:04.402Z,9.52
2023-12-24T10:07:38.797Z,9.51
2023-12-24T10:10:08.145Z,9.55
2023-12-24T10:12:35.793Z,9.59
2023-12-24T10:15:03.726Z,9.64
2023-12-24T10:17:32.374Z,9.67
2023-12-24T10:20:01.110Z,9.63
2023-12-24T10:22:28.720Z,9.66
2023-12-24T10:25:03.084Z,9.64
2023-12-24T10:27:31.113Z,9.70
2023-12-24T10:30:11.818Z,9.69
2023-12-24T10:32:40.572Z,9.68
2023-12-24T10:35:09.231Z,9.74
2023-12-24T10:37:37.049Z,9.77
2023-12-24T10:40:11.070Z,9.81
2023-12-24T10:42:39.117Z,9.85
2023-12-24T10:45:07.581Z,9.82
2023-12-24T10:47:36.718Z,9.87
2023-12-24T10:50:05.073Z,9.80
2023-12-24T10:52:32.935Z,9.85
2023-12-24T10:55:03.480Z,9.89
2023-12-24T10:57:42.402Z,9.90
2023-12-24T11:00:12.648Z,9.84
2023-12-24T11:02:45.361Z,9.89
2023-12-24T11:05:13.386Z,9.89
2023-12-24T11:07:49.141Z,9.94
2023-12-24T11:10:40.174Z,9.91
2023-12-24T11:13:45.941Z,9.96
2023-12-24T11:16:42.641Z,9.97
2023-12-24T11:19:24.857Z,10.02
2023-12-24T11:22:10.767Z,9.99
2023-12-24T11:24:51.686Z,10.00
2023-12-24T11:27:22.282Z,10.04
2023-12-24T11:29:50.758Z,10.03
2023-12-24T11:32:39.276Z,10.09
2023-12-24T11:35:08.157Z,10.09
2023-12-24T11:37:37.336Z,10.08
2023-12-24T11:40:09.758Z,10.12
2023-12-24T11:42:42.459Z,10.12
2023-12-24T11:45:19.741Z,10.12
2023-12-24T11:47:49.182Z,10.18
2023-12-24T11:50:16.933Z,10.14
2023-12-24T11:52:45.409Z,10.10
2023-12-24T11:55:16.509Z,10.13
2023-12-24T11:57:44.385Z,10.13
2023-12-24T12:00:15.037Z,10.13
2023-12-24T12:02:44.062Z,10.15
2023-12-24T12:05:13.158Z,10.19
2023-12-24T12:07:40.818Z,10.12
2023-12-24T12:10:09.433Z,10.23
2023-12-24T12:12:37.014Z,10.24
2023-12-24T12:15:05.161Z,10.21
2023-12-24T12:17:32.950Z,10.26
2023-12-24T12:20:00.642Z,10.22
2023-12-24T12:22:29.915Z,10.23
2023-12-24T12:24:57.547Z,10.29
2023-12-24T12:27:25.739Z,10.30
2023-12-24T12:29:53.382Z,10.35
2023-12-24T12:32:20.965Z,10.31
2023-12-24T12:34:48.622Z,10.34
2023-12-24T12:37:16.239Z,10.31
2023-12-24T12:39:45.169Z,10.38
2023-12-24T12:42:12.835Z,10.36
2023-12-24T12:44:40.543Z,10.38
2023-12-24T12:47:08.151Z,10.43
2023-12-24T12:49:35.791Z,10.39
2023-12-24T12:52:03.591Z,10.50
2023-12-24T12:54:31.226Z,10.46
2023-12-24T12:57:00.283Z,10.42
2023-12-24T12:59:28.055Z,10.46
2023-12-24T13:01:56.299Z,10.48
2023-12-24T13:04:27.987Z,10.47
2023-12-24T13:06:59.300Z,10.50
2023-12-24T13:09:27.498Z,10.52
2023-12-24T13:12:07.077Z,10.53
2023-12-24T13:14:35.060Z,10.53
2023-12-24T13:17:10.308Z,10.52
2023-12-24T13:19:39.993Z,10.55
2023-12-24T13:22:07.681Z,10.55
2023-12-24T13:24:35.748Z,10.58
2023-12-24T13:27:05.218Z,10.60
2023-12-24T13:29:36.356Z,10.57
2023-12-24T13:32:04.683Z,10.56
2023-12-24T13:34:33.463Z,10.56
2023-12-24T13:37:01.341Z,10.60
2023-12-24T13:39:29.876Z,10.56
2023-12-24T13:41:57.810Z,10.65
2023-12-24T13:44:25.491Z,10.64
2023-12-24T13:46:54.621Z,10.62
2023-12-24T13:49:22.379Z,10.64
2023-12-24T13:51:50.044Z,10.69
2023-12-24T13:54:17.615Z,10.71
2023-12-24T13:56:45.305Z,10.68
2023-12-24T13:59:13.056Z,10.66
2023-12-24T14:01:42.008Z,10.67
2023-12-24T14:04:11.180Z,10.74
2023-12-24T14:06:39.383Z,10.74
2023-12-24T14:09:07.070Z,10.73
2023-12-24T14:11:34.698Z,10.75
2023-12-24T14:14:02.315Z,10.79
2023-12-24T14:16:31.575Z,10.80
2023-12-24T14:18:59.273Z,10.80
2023-12-24T14:21:28.349Z,10.76
2023-12-24T14:23:55.991Z,10.73
2023-12-24T14:26:23.629Z,10.76
2023-12-24T14:28:51.187Z,10.76
2023-12-24T14:31:18.860Z,10.75
2023-12-24T14:33:46.522Z,10.81
2023-12-24T14:36:14.157Z,10.80
2023-12-24T14:38:43.076Z,10.83
2023-12-24T14:41:10.689Z,10.84
2023-12-24T14:43:38.333Z,10.86
2023-12-24T14:46:06.186Z,10.86
2023-12-24T14:48:37.183Z,10.85
2023-12-24T14:51:10.029Z,10.87
2023-12-24T14:53:38.413Z,10.94
2023-12-24T14:56:11.401Z,10.90
2023-12-24T14:58:39.077Z,10.87
2023-12-24T15:01:09.701Z,10.93
2023-12-24T15:03:37.427Z,10.91
2023-12-24T15:06:06.226Z,10.94
2023-12-24T15:08:33.921Z,10.92
2023-12-24T15:11:02.060Z,10.94
2023-12-24T15:13:31.046Z,10.95
2023-12-24T15:15:58.594Z,10.98
2023-12-24T15:18:26.312Z,10.92
2023-12-24T15:20:54.142Z,10.96
2023-12-24T15:23:22.642Z,10.94
2023-12-24T15:25:50.272Z,10.96
2023-12-24T15:28:20.367Z,11.00
2023-12-24T15:30:50.154Z,11.01
2023-12-24T15:33:17.961Z,11.01
2023-12-24T15:35:45.855Z,10.96
2023-12-24T15:38:13.453Z,10.94
2023-12-24T15:40:41.064Z,10.96
2023-12-24T15:43:08.700Z,10.94
2023-12-24T15:45:39.708Z,10.96
2023-12-24T15:48:10.359Z,10.97
2023-12-24T15:50:38.196Z,10.91
2023-12-24T15:53:05.789Z,11.02
2023-12-24T15:55:33.555Z,11.03
2023-12-24T15:58:01.109Z,11.03
2023-12-24T16:00:29.049Z,11.04
2023-12-24T16:02:56.904Z,11.01
2023-12-24T16:05:27.966Z,11.07
2023-12-24T16:07:55.659Z,11.08
2023-12-24T16:10:23.394Z,11.08
2023-12-24T16:12:52.544Z,11.05
2023-12-24T16:15:20.314Z,11.12
2023-12-24T16:17:48.132Z,11.09
2023-12-24T16:20:16.993Z,11.09
2023-12-24T16:22:45.967Z,11.07
2023-12-24T16:25:13.908Z,11.11
2023-12-24T16:27:41.466Z,11.11
2023-12-24T16:30:10.374Z,11.12
2023-12-24T16:32:38.314Z,11.11
2023-12-24T16:35:06.631Z,11.10
2023-12-24T16:37:34.292Z,11.13
2023-12-24T16:40:03.642Z,11.17
2023-12-24T16:42:31.221Z,11.16
2023-12-24T16:44:58.923Z,11.15
2023-12-24T16:47:26.646Z,11.16
2023-12-24T16:49:54.544Z,11.21
2023-12-24T16:52:22.158Z,11.20
2023-12-24T16:54:49.781Z,11.17
2023-12-24T16:57:18.791Z,11.18
2023-12-24T16:59:46.415Z,11.19
2023-12-24T17:02:14.116Z,11.25
2023-12-24T17:04:41.784Z,11.25
2023-12-24T17:07:09.444Z,11.32
2023-12-24T17:09:37.834Z,11.34
2023-12-24T17:12:07.113Z,11.33
2023-12-24T17:14:36.061Z,11.33
2023-12-24T17:17:03.826Z,11.35
2023-12-24T17:19:31.537Z,11.36
2023-12-24T17:21:59.135Z,11.37
2023-12-24T17:24:26.722Z,11.37
2023-12-24T17:26:54.467Z,11.42
2023-12-24T17:29:22.433Z,11.49
2023-12-24T17:31:52.549Z,11.50
2023-12-24T17:34:20.275Z,11.57
2023-12-24T17:36:47.853Z,11.58
2023-12-24T17:39:16.046Z,11.60
2023-12-24T17:41:43.883Z,11.62
2023-12-24T17:44:11.556Z,11.60
2023-12-24T17:46:39.215Z,11.68
2023-12-24T17:49:08.991Z,11.69
2023-12-24T17:51:40.150Z,11.73
2023-12-24T17:54:07.813Z,11.74
2023-12-24T17:56:35.715Z,11.79
2023-12-24T17:59:03.348Z,11.78
2023-12-24T18:01:30.924Z,11.85
2023-12-24T18:03:58.571Z,11.86
2023-12-24T18:06:27.575Z,11.88
2023-12-24T18:08:55.256Z,11.85
2023-12-24T18:11:23.027Z,11.88
2023-12-24T18:13:50.652Z,11.94
2023-12-24T18:16:18.269Z,11.96
2023-12-24T18:18:46.237Z,11.99
2023-12-24T18:21:13.870Z,11.98
2023-12-24T18:23:44.467Z,11.99
2023-12-24T18:26:16.026Z,12.03
2023-12-24T18:28:43.984Z,11.99
2023-12-24T18:31:11.845Z,11.91
2023-12-24T18:33:40.119Z,11.77
2023-12-24T18:36:08.132Z,11.66
2023-12-24T18:38:37.218Z,11.56
2023-12-24T18:41:06.425Z,11.36
2023-12-24T18:43:34.048Z,11.19
2023-12-24T18:46:05.018Z,11.06
2023-12-24T18:48:32.769Z,10.93
2023-12-24T18:51:00.609Z,10.87
2023-12-24T18:53:28.326Z,10.88
2023-12-24T18:55:56.106Z,10.90
2023-12-24T18:58:25.016Z,10.94
2023-12-24T19:00:52.625Z,11.00
2023-12-24T19:03:20.360Z,11.08
2023-12-24T19:05:47.993Z,11.11
2023-12-24T19:08:15.628Z,11.09
2023-12-24T19:10:43.673Z,11.08
2023-12-24T19:13:11.318Z,11.18
2023-12-24T19:15:41.492Z,11.19
2023-12-24T19:18:09.482Z,11.22
2023-12-24T19:20:37.222Z,11.23
2023-12-24T19:23:05.243Z,11.25
2023-12-24T19:25:32.960Z,11.32
2023-12-24T19:28:00.566Z,11.36
2023-12-24T19:30:28.325Z,11.43
2023-12-24T19:32:57.568Z,11.51
2023-12-24T19:35:25.584Z,11.51
2023-12-24T19:37:53.249Z,11.53
2023-12-24T19:40:20.876Z,11.49
2023-12-24T19:42:48.481Z,11.57
2023-12-24T19:45:16.171Z,11.55
2023-12-24T19:47:43.989Z,11.56
2023-12-24T19:50:13.323Z,11.55
2023-12-24T19:52:41.053Z,11.57
2023-12-24T19:55:09.494Z,11.56
2023-12-24T19:57:37.223Z,11.56
2023-12-24T20:00:05.402Z,11.54
2023-12-24T20:02:40.377Z,11.57
2023-12-24T20:05:08.780Z,11.52
2023-12-24T20:07:37.718Z,11.51
2023-12-24T20:10:06.128Z,11.44
2023-12-24T20:12:34.097Z,11.47
2023-12-24T20:15:01.961Z,11.46
2023-12-24T20:17:29.565Z,11.43
2023-12-24T20:19:57.572Z,11.38
2023-12-24T20:22:25.613Z,11.42
2023-12-24T20:24:54.864Z,11.35
2023-12-24T20:27:23.020Z,11.39
2023-12-24T20:29:51.915Z,11.37
2023-12-24T20:32:19.984Z,11.35
2023-12-24T20:34:48.194Z,11.28
2023-12-24T20:37:15.874Z,11.23
2023-12-24T20:39:43.645Z,11.16
2023-12-24T20:42:12.658Z,11.21
2023-12-24T20:44:41.309Z,11.17
2023-12-24T20:47:09.472Z,11.11
2023-12-24T20:49:38.027Z,11.08
2023-12-24T20:52:07.999Z,11.05
2023-12-24T20:54:35.616Z,11.07
2023-12-24T20:57:03.904Z,11.05
2023-12-24T20:59:32.962Z,11.02
2023-12-24T21:02:00.604Z,10.98
2023-12-24T21:04:28.192Z,10.98
2023-12-24T21:06:55.854Z,10.96
2023-12-24T21:09:23.446Z,10.90
2023-12-24T21:11:51.151Z,10.92
2023-12-24T21:14:18.840Z,10.86
2023-12-24T21:16:47.825Z,10.89
2023-12-24T21:19:15.438Z,10.91
2023-12-24T21:21:43.269Z,10.91
2023-12-24T21:24:10.854Z,10.89
2023-12-24T21:26:39.474Z,10.88
2023-12-24T21:29:07.277Z,10.93
2023-12-24T21:31:35.077Z,10.90
2023-12-24T21:34:04.234Z,10.89
2023-12-24T21:36:31.939Z,10.89
2023-12-24T21:38:59.655Z,10.91
2023-12-24T21:41:27.578Z,10.92
2023-12-24T21:43:55.690Z,10.84
2023-12-24T21:46:23.882Z,10.83
2023-12-24T21:48:51.626Z,10.88
2023-12-24T21:51:21.005Z,10.86
2023-12-24T21:53:48.609Z,10.82
2023-12-24T21:56:16.358Z,10.80
2023-12-24T21:58:44.046Z,10.75
2023-12-24T22:01:18.439Z,10.68
2023-12-24T22:03:49.983Z,10.67
2023-12-24T22:06:17.822Z,10.66
2023-12-24T22:08:46.852Z,10.65
2023-12-24T22:11:14.648Z,10.62
2023-12-24T22:13:42.363Z,10.60
2023-12-24T22:16:13.973Z,10.53
2023-12-24T22:18:41.839Z,10.55
2023-12-24T22:21:09.943Z,10.52
2023-12-24T22:23:39.452Z,10.51
2023-12-24T22:26:11.994Z,10.51
2023-12-24T22:28:40.281Z,10.52
2023-12-24T22:31:08.750Z,10.57
2023-12-24T22:33:38.579Z,10.59
2023-12-24T22:36:07.182Z,10.60
2023-12-24T22:38:34.898Z,10.62
2023-12-24T22:41:02.445Z,10.61
2023-12-24T22:43:31.399Z,10.64
2023-12-24T22:45:59.042Z,10.67
2023-12-24T22:48:26.628Z,10.66
2023-12-24T22:50:54.298Z,10.68
2023-12-24T22:53:22.089Z,10.64
2023-12-24T22:55:50.791Z,10.70
2023-12-24T22:58:18.506Z,10.66
2023-12-24T23:00:47.866Z,10.61
2023-12-24T23:03:15.812Z,10.55
2023-12-24T23:05:44.021Z,10.58
2023-12-24T23:08:11.972Z,10.56
2023-12-24T23:10:39.898Z,10.48
2023-12-24T23:13:07.613Z,10.50
2023-12-24T23:15:35.685Z,10.48
2023-12-24T23:18:05.314Z,10.47
2023-12-24T23:20:33.288Z,10.42
2023-12-24T23:23:00.879Z,10.42
2023-12-24T23:25:28.629Z,10.44
2023-12-24T23:27:56.473Z,10.40
2023-12-24T23:30:24.330Z,10.33
2023-12-24T23:32:52.153Z,10.35
2023-12-24T23:35:21.833Z,10.33
2023-12-24T23:37:49.629Z,10.38
2023-12-24T23:40:17.326Z,10.33
2023-12-24T23:42:44.860Z,10.29
2023-12-24T23:45:12.447Z,10.34
2023-12-24T23:47:40.631Z,10.33
2023-12-24T23:50:09.018Z,10.36
2023-12-24T23:52:37.904Z,10.37
2023-12-24T23:55:06.285Z,10.38
2023-12-24T23:57:33.846Z,10.41
